Kenmore, Washington
Current Conditions -  °F | °C
As of 7:53 AM on Monday 24 Nov 2014 (Local Time) from KPAE Reporting Station
Broken Clouds Broken Clouds  
Wind Chill: 39°   Ceiling: 12000
Heat Index: 43°   Visibility: 10mi
Dew Point: 38°   Wind: 6mph
Humidity: 82%   Direction: NA
Pressure: 30.31"   Gusts: NA
Location:  47.76°N, 122.24°W
Report Text: KPAE 241553Z VRB05KT 10SM SCT026 BKN120 06/03 A3031 RMK AO2 SLP267 T00610033 $
Loading
Personal Weather Stations






























Interactive Weather Map New forecast layout! Learn more

10-Day Weather Forecast

Advertisements
Track Severe Weather on mobile